Time;durP1;ratioP1;P1;durP2;ratioP2;P2;SDS_P1;SDS_P2;PMS_P1;PMS_P2;Temp;Humidity;BMP_temperature;BMP_pressure;BME280_temperature;BME280_humidity;BME280_pressure;Samples;Min_cycle;Max_cycle;Signal;HPM_P1;HPM_P2
2024/02/02 00:02:02;;;;;;;0.00;0.00;;;24.30;44.90;;;;;;5013199;28;20203;-44
2024/02/02 00:04:32;;;;;;;0.00;0.00;;;24.30;45.50;;;;;;5011466;28;20205;-45
2024/02/02 00:07:03;;;;;;;0.00;0.00;;;24.30;44.90;;;;;;5011983;28;20216;-46
2024/02/02 00:09:34;;;;;;;0.00;0.00;;;24.30;44.90;;;;;;5013956;28;20196;-46
2024/02/02 00:12:10;;;;;;;0.00;0.00;;;24.30;44.90;;;;;;5015752;28;20204;-45
2024/02/02 00:15:02;;;;;;;0.00;0.00;;;24.30;45.00;;;;;;5015708;28;20254;-46
2024/02/02 00:17:33;;;;;;;0.00;0.00;;;24.40;45.10;;;;;;5015823;28;20623;-46
2024/02/02 00:20:05;;;;;;;0.00;0.00;;;24.40;45.00;;;;;;5015641;28;20563;-47
2024/02/02 00:22:36;;;;;;;0.00;0.00;;;24.40;45.10;;;;;;5015298;28;20192;-46
2024/02/02 00:25:08;;;;;;;0.00;0.00;;;24.40;45.00;;;;;;5015750;28;20207;-47
2024/02/02 00:27:41;;;;;;;0.00;0.00;;;24.40;45.00;;;;;;5015586;28;20259;-50
2024/02/02 00:30:12;;;;;;;0.00;0.00;;;24.40;45.00;;;;;;5015455;28;20239;-49
2024/02/02 00:32:45;;;;;;;0.00;0.00;;;24.40;45.00;;;;;;5015334;28;20228;-45
2024/02/02 00:35:17;;;;;;;0.00;0.00;;;24.40;45.00;;;;;;5015100;28;20211;-45
2024/02/02 00:37:48;;;;;;;0.03;0.03;;;24.40;45.00;;;;;;5015322;28;20221;-46
2024/02/02 00:40:18;;;;;;;0.00;0.00;;;24.40;45.00;;;;;;5015471;28;20200;-45
2024/02/02 00:42:51;;;;;;;0.00;0.00;;;24.40;44.90;;;;;;5015224;28;20205;-45
2024/02/02 00:45:22;;;;;;;0.00;0.00;;;24.40;44.90;;;;;;5015107;28;20196;-45
2024/02/02 00:47:53;;;;;;;0.00;0.00;;;24.40;44.90;;;;;;5015883;28;20248;-45
2024/02/02 00:50:24;;;;;;;0.05;0.05;;;24.40;44.90;;;;;;5014950;28;20208;-45
2024/02/02 00:52:55;;;;;;;0.00;0.00;;;24.40;44.90;;;;;;5039350;22;20232;-45
2024/02/02 00:55:26;;;;;;;0.00;0.00;;;24.40;44.90;;;;;;5034243;28;20184;-43
2024/02/02 00:57:59;;;;;;;0.00;0.00;;;24.50;45.00;;;;;;5034461;28;20227;-43
2024/02/02 01:00:30;;;;;;;0.00;0.00;;;24.40;45.00;;;;;;5034554;28;20277;-42
2024/02/02 01:03:01;;;;;;;0.00;0.00;;;24.50;45.00;;;;;;5034151;28;20203;-46
2024/02/02 01:05:32;;;;;;;0.00;0.00;;;24.50;45.00;;;;;;5034201;28;20199;-43
2024/02/02 01:08:04;;;;;;;0.00;0.00;;;24.50;45.10;;;;;;5035048;28;20250;-43
2024/02/02 01:10:35;;;;;;;0.00;0.00;;;24.50;45.10;;;;;;5025876;28;20275;-45
2024/02/02 01:13:07;;;;;;;0.00;0.00;;;24.50;45.10;;;;;;5014777;28;20247;-44
2024/02/02 01:15:38;;;;;;;0.00;0.00;;;24.50;45.10;;;;;;5014961;28;20205;-46
2024/02/02 01:18:09;;;;;;;0.03;0.03;;;24.50;45.10;;;;;;5014524;28;20223;-43
2024/02/02 01:20:40;;;;;;;0.00;0.00;;;24.50;45.10;;;;;;5014024;28;20197;-45
2024/02/02 01:23:11;;;;;;;0.00;0.00;;;24.60;45.10;;;;;;5014676;28;20263;-43
2024/02/02 01:25:41;;;;;;;0.00;0.00;;;24.60;45.10;;;;;;5014451;28;20247;-44
2024/02/02 01:28:14;;;;;;;0.00;0.00;;;24.60;45.10;;;;;;5014479;28;20303;-46
2024/02/02 01:30:45;;;;;;;0.10;0.10;;;24.60;45.10;;;;;;5014429;28;20799;-44
2024/02/02 01:33:15;;;;;;;0.00;0.00;;;24.60;45.00;;;;;;5021462;28;20216;-42
2024/02/02 01:35:46;;;;;;;0.00;0.00;;;24.60;45.00;;;;;;5034102;28;20188;-44
2024/02/02 01:38:17;;;;;;;0.00;0.00;;;24.70;45.10;;;;;;5014844;28;20588;-46
2024/02/02 01:40:48;;;;;;;0.00;0.00;;;24.70;45.10;;;;;;5014512;28;20211;-41
2024/02/02 01:43:23;;;;;;;0.00;0.00;;;24.70;45.10;;;;;;5014361;28;20211;-43
2024/02/02 01:45:54;;;;;;;0.00;0.00;;;24.70;45.10;;;;;;5005857;28;20276;-41
2024/02/02 01:48:25;;;;;;;0.10;0.10;;;24.70;45.10;;;;;;4993985;28;20221;-44
2024/02/02 01:50:56;;;;;;;0.00;0.00;;;24.70;45.10;;;;;;4994619;28;20705;-47
2024/02/02 01:53:27;;;;;;;0.00;0.00;;;24.70;45.10;;;;;;4994790;28;20739;-43
2024/02/02 01:55:59;;;;;;;0.10;0.10;;;24.70;45.10;;;;;;4994217;28;20193;-44
2024/02/02 01:58:32;;;;;;;0.10;0.10;;;24.70;45.10;;;;;;5005277;28;20261;-47
2024/02/02 02:01:04;;;;;;;0.03;0.03;;;24.80;45.10;;;;;;5013710;28;20211;-43
2024/02/02 02:03:36;;;;;;;0.00;0.00;;;24.80;45.10;;;;;;5014123;28;20193;-45
2024/02/02 02:06:07;;;;;;;0.00;0.00;;;24.80;45.10;;;;;;5013858;28;20542;-45
2024/02/02 02:08:39;;;;;;;0.00;0.00;;;24.80;45.10;;;;;;5013749;28;20256;-44
2024/02/02 02:11:12;;;;;;;0.00;0.00;;;24.90;45.10;;;;;;5013218;28;20641;-46
2024/02/02 02:13:47;;;;;;;0.00;0.00;;;24.90;45.10;;;;;;5013548;28;20220;-40
2024/02/02 02:16:18;;;;;;;0.00;0.00;;;24.90;45.10;;;;;;5009591;28;20192;-42
2024/02/02 02:18:50;;;;;;;0.05;0.05;;;24.90;45.00;;;;;;5009560;28;20196;-42
2024/02/02 02:21:28;;;;;;;0.00;0.00;;;24.90;45.00;;;;;;5009560;28;20290;-44
2024/02/02 02:23:59;;;;;;;0.00;0.00;;;24.90;45.00;;;;;;4989803;28;20240;-48
2024/02/02 02:26:33;;;;;;;0.00;0.00;;;24.90;45.00;;;;;;5007616;28;20197;-41
2024/02/02 02:29:05;;;;;;;0.00;0.00;;;24.90;45.00;;;;;;5009539;28;20553;-43
2024/02/02 02:31:36;;;;;;;0.00;0.00;;;24.90;45.00;;;;;;5008553;28;20557;-42
2024/02/02 02:34:07;;;;;;;0.00;0.00;;;24.90;45.00;;;;;;5008176;28;20224;-40
2024/02/02 02:36:41;;;;;;;0.00;0.00;;;24.90;45.10;;;;;;5012399;28;20521;-44
2024/02/02 02:39:12;;;;;;;0.00;0.00;;;24.90;45.10;;;;;;5029305;28;20566;-45
2024/02/02 02:41:44;;;;;;;0.00;0.00;;;24.90;45.10;;;;;;5010571;28;20551;-44
2024/02/02 02:44:16;;;;;;;0.00;0.00;;;24.90;45.10;;;;;;5008958;28;20540;-47
2024/02/02 02:46:48;;;;;;;0.00;0.00;;;24.90;45.00;;;;;;5009198;28;20581;-44
2024/02/02 02:49:19;;;;;;;0.00;0.00;;;24.90;45.00;;;;;;5008990;28;20290;-46
2024/02/02 02:51:53;;;;;;;0.00;0.00;;;24.90;45.00;;;;;;5010757;28;20205;-40
2024/02/02 02:54:24;;;;;;;0.00;0.00;;;24.80;45.00;;;;;;5009394;28;20255;-44
2024/02/02 02:56:56;;;;;;;0.00;0.00;;;24.90;45.00;;;;;;5010919;28;20212;-45
2024/02/02 02:59:28;;;;;;;0.00;0.00;;;24.90;44.90;;;;;;5009084;28;20611;-42
2024/02/02 03:02:00;;;;;;;0.00;0.00;;;24.90;44.90;;;;;;5009128;28;20336;-44
2024/02/02 03:04:31;;;;;;;0.00;0.00;;;24.90;44.90;;;;;;5009474;28;20197;-44
2024/02/02 03:07:05;;;;;;;0.00;0.00;;;24.80;44.80;;;;;;5008929;28;20682;-46
2024/02/02 03:09:36;;;;;;;0.00;0.00;;;24.80;44.80;;;;;;5008372;28;20354;-43
2024/02/02 03:12:08;;;;;;;0.10;0.10;;;24.90;44.80;;;;;;5008508;28;20537;-46
2024/02/02 03:14:40;;;;;;;0.10;0.10;;;24.80;44.80;;;;;;5008785;28;20580;-47
2024/02/02 03:17:11;;;;;;;0.00;0.00;;;24.80;44.70;;;;;;5009429;28;20290;-46
2024/02/02 03:19:42;;;;;;;0.00;0.00;;;24.90;44.70;;;;;;5008871;28;20275;-44
2024/02/02 03:22:16;;;;;;;0.00;0.00;;;24.90;44.60;;;;;;5009009;28;20608;-46
2024/02/02 03:24:48;;;;;;;0.00;0.00;;;24.80;44.50;;;;;;5008774;28;20548;-46
2024/02/02 03:27:19;;;;;;;0.00;0.00;;;24.90;44.50;;;;;;5008458;28;20598;-42
2024/02/02 03:29:51;;;;;;;0.00;0.00;;;24.80;44.50;;;;;;5009179;28;20512;-46
2024/02/02 03:32:23;;;;;;;0.08;0.08;;;24.90;44.50;;;;;;5008500;28;20550;-41
2024/02/02 03:34:54;;;;;;;0.00;0.00;;;24.80;44.40;;;;;;5008841;28;20242;-48
2024/02/02 03:37:27;;;;;;;0.00;0.00;;;24.90;44.40;;;;;;5009071;28;20602;-42
2024/02/02 03:39:59;;;;;;;0.00;0.00;;;24.90;44.40;;;;;;5008456;28;20248;-41
2024/02/02 03:42:30;;;;;;;0.00;0.00;;;24.90;44.30;;;;;;5009094;28;20582;-46
2024/02/02 03:45:02;;;;;;;0.00;0.00;;;24.90;44.20;;;;;;5008147;28;20294;-43
2024/02/02 03:47:33;;;;;;;0.00;0.00;;;24.90;44.20;;;;;;5007643;28;20547;-44
2024/02/02 03:50:05;;;;;;;0.00;0.00;;;24.90;44.20;;;;;;5007835;28;20223;-42
2024/02/02 03:52:38;;;;;;;0.00;0.00;;;25.00;44.20;;;;;;5009037;28;20295;-42
2024/02/02 03:55:10;;;;;;;0.03;0.03;;;25.00;44.20;;;;;;5007664;28;20569;-45
2024/02/02 03:57:42;;;;;;;0.00;0.00;;;25.10;44.30;;;;;;5008649;28;20272;-43
2024/02/02 04:00:15;;;;;;;0.00;0.00;;;25.00;44.20;;;;;;5010856;28;20214;-44
2024/02/02 04:02:47;;;;;;;0.00;0.00;;;25.00;44.10;;;;;;5008494;28;20603;-42
2024/02/02 04:05:18;;;;;;;0.10;0.10;;;25.10;44.10;;;;;;5008338;28;20558;-43
2024/02/02 04:07:52;;;;;;;0.00;0.00;;;25.10;44.10;;;;;;5007857;28;20247;-39
2024/02/02 04:10:23;;;;;;;0.00;0.00;;;25.10;44.00;;;;;;5007999;28;20231;-42
2024/02/02 04:12:54;;;;;;;0.00;0.00;;;25.10;44.00;;;;;;5008274;28;20197;-42
2024/02/02 04:15:26;;;;;;;0.00;0.00;;;25.10;43.90;;;;;;5008813;28;20271;-43
2024/02/02 04:17:57;;;;;;;0.00;0.00;;;25.20;43.90;;;;;;5008313;28;20315;-41
2024/02/02 04:20:28;;;;;;;0.00;0.00;;;25.10;43.80;;;;;;5009179;28;20540;-41
2024/02/02 04:23:02;;;;;;;0.00;0.00;;;25.20;43.70;;;;;;5008166;28;20263;-45
2024/02/02 04:25:33;;;;;;;0.05;0.05;;;25.20;42.90;;;;;;5020974;28;20241;-41
2024/02/02 04:28:08;;;;;;;0.00;0.00;;;25.20;42.70;;;;;;5022503;28;20236;-45
2024/02/02 04:30:39;;;;;;;0.00;0.00;;;25.20;42.60;;;;;;5008575;28;20223;-46
2024/02/02 04:33:11;;;;;;;0.00;0.00;;;25.20;42.50;;;;;;5025438;28;20570;-47
2024/02/02 04:35:42;;;;;;;0.00;0.00;;;25.20;42.50;;;;;;5019330;28;20329;-46
2024/02/02 04:38:17;;;;;;;0.03;0.03;;;25.30;42.50;;;;;;5007762;28;20220;-49
2024/02/02 04:40:48;;;;;;;0.10;0.10;;;25.20;42.40;;;;;;5007245;28;20760;-42
2024/02/02 04:43:20;;;;;;;0.00;0.00;;;25.20;42.30;;;;;;4988561;28;20223;-45
2024/02/02 04:45:51;;;;;;;0.00;0.00;;;25.30;42.20;;;;;;5011913;28;20247;-43
2024/02/02 04:48:23;;;;;;;0.00;0.00;;;25.30;42.10;;;;;;5024154;28;20273;-46
2024/02/02 04:50:54;;;;;;;0.00;0.00;;;25.30;42.00;;;;;;5026748;28;20734;-45
2024/02/02 04:53:28;;;;;;;0.10;0.10;;;25.30;41.90;;;;;;5020695;28;20223;-42
2024/02/02 04:55:59;;;;;;;0.00;0.00;;;25.30;41.80;;;;;;5009494;28;20555;-41
2024/02/02 04:58:31;;;;;;;0.08;0.08;;;25.30;42.00;;;;;;5010581;28;20213;-47
2024/02/02 05:01:02;;;;;;;0.00;0.00;;;25.30;41.90;;;;;;5026273;28;20631;-48
2024/02/02 05:03:34;;;;;;;0.00;0.00;;;25.30;42.00;;;;;;5030691;28;20350;-47
2024/02/02 05:06:06;;;;;;;0.00;0.00;;;25.30;41.80;;;;;;5030331;28;20558;-45
2024/02/02 05:08:39;;;;;;;0.00;0.00;;;25.30;41.60;;;;;;5016033;28;20291;-45
2024/02/02 05:11:10;;;;;;;0.00;0.00;;;25.30;41.20;;;;;;5011141;28;20554;-46
2024/02/02 05:13:42;;;;;;;0.10;0.10;;;25.30;41.00;;;;;;5011027;28;20200;-48
2024/02/02 05:16:13;;;;;;;0.00;0.00;;;25.30;40.80;;;;;;5011814;28;20189;-48
2024/02/02 05:18:45;;;;;;;0.05;0.05;;;25.30;40.70;;;;;;5010982;28;20621;-48
2024/02/02 05:21:16;;;;;;;0.00;0.00;;;25.30;40.90;;;;;;5011063;28;20280;-48
2024/02/02 05:23:50;;;;;;;0.00;0.00;;;25.30;40.80;;;;;;4991426;28;20286;-46
2024/02/02 05:26:21;;;;;;;0.00;0.00;;;25.30;40.70;;;;;;4991105;28;20189;-49
2024/02/02 05:28:52;;;;;;;0.00;0.00;;;25.30;40.50;;;;;;4991516;28;20201;-45
2024/02/02 05:31:24;;;;;;;0.00;0.00;;;25.30;40.50;;;;;;4991721;28;20201;-49
2024/02/02 05:33:55;;;;;;;0.00;0.00;;;25.30;40.60;;;;;;4992336;28;20653;-49
2024/02/02 05:36:26;;;;;;;0.00;0.00;;;25.30;40.40;;;;;;5009693;28;20248;-46
2024/02/02 05:39:00;;;;;;;0.00;0.00;;;25.30;40.30;;;;;;5010835;28;20531;-49
2024/02/02 05:41:32;;;;;;;0.00;0.00;;;25.30;40.40;;;;;;5011282;28;20223;-48
2024/02/02 05:44:03;;;;;;;0.00;0.00;;;25.30;40.40;;;;;;5010624;28;20618;-46
2024/02/02 05:46:34;;;;;;;0.10;0.10;;;25.30;40.20;;;;;;5011316;28;20263;-46
2024/02/02 05:49:06;;;;;;;0.00;0.00;;;25.40;40.30;;;;;;5009807;28;20670;-50
2024/02/02 05:51:37;;;;;;;0.00;0.00;;;25.40;40.20;;;;;;5011800;28;20617;-46
2024/02/02 05:54:10;;;;;;;0.00;0.00;;;25.40;40.40;;;;;;5009798;28;20221;-48
2024/02/02 05:56:42;;;;;;;0.00;0.00;;;25.40;40.50;;;;;;5010310;28;20552;-46
2024/02/02 05:59:14;;;;;;;0.00;0.00;;;25.50;40.60;;;;;;5010701;28;20567;-44
2024/02/02 06:01:45;;;;;;;0.00;0.00;;;25.50;40.60;;;;;;5010576;28;20664;-50
2024/02/02 06:04:17;;;;;;;0.00;0.00;;;25.50;40.60;;;;;;5010262;28;20235;-51
2024/02/02 06:06:48;;;;;;;0.00;0.00;;;25.50;40.50;;;;;;5010414;28;20715;-46
2024/02/02 06:09:22;;;;;;;0.00;0.00;;;25.50;40.30;;;;;;5012841;28;20189;-49
2024/02/02 06:11:53;;;;;;;0.00;0.00;;;25.50;40.20;;;;;;5009981;28;20555;-48
2024/02/02 06:14:27;;;;;;;0.00;0.00;;;25.50;40.30;;;;;;5013773;28;20677;-46
2024/02/02 06:16:58;;;;;;;0.00;0.00;;;25.50;40.30;;;;;;5013695;28;20326;-49
2024/02/02 06:19:30;;;;;;;0.00;0.00;;;25.50;40.20;;;;;;5013446;28;20555;-46
2024/02/02 06:22:01;;;;;;;0.00;0.00;;;25.50;40.20;;;;;;5013404;28;20257;-47
2024/02/02 06:24:35;;;;;;;0.00;0.00;;;25.50;40.20;;;;;;5013542;28;20598;-49
2024/02/02 06:27:07;;;;;;;0.00;0.00;;;25.50;40.20;;;;;;5013438;28;20597;-47
2024/02/02 06:29:38;;;;;;;0.00;0.00;;;25.50;40.30;;;;;;5013313;28;20201;-46
2024/02/02 06:32:10;;;;;;;0.00;0.00;;;25.50;40.30;;;;;;5008797;28;20215;-48
2024/02/02 06:34:42;;;;;;;0.00;0.00;;;25.50;40.40;;;;;;5009205;28;20220;-42
2024/02/02 06:37:13;;;;;;;0.00;0.00;;;25.40;40.40;;;;;;5008554;28;20278;-42
2024/02/02 06:39:48;;;;;;;0.00;0.00;;;25.50;40.40;;;;;;5010419;28;20220;-45
2024/02/02 06:42:20;;;;;;;0.00;0.00;;;25.50;40.50;;;;;;5008891;28;20652;-43
2024/02/02 06:44:51;;;;;;;0.00;0.00;;;25.50;40.40;;;;;;5009813;28;20555;-43
2024/02/02 06:47:23;;;;;;;0.00;0.00;;;25.40;40.40;;;;;;5009424;28;20212;-46
2024/02/02 06:49:54;;;;;;;0.00;0.00;;;25.40;40.50;;;;;;5008752;28;20667;-47
2024/02/02 06:52:26;;;;;;;0.00;0.00;;;25.50;40.40;;;;;;5011626;28;20588;-44
2024/02/02 06:54:59;;;;;;;0.00;0.00;;;25.40;40.10;;;;;;5009409;28;20581;-45
2024/02/02 06:57:32;;;;;;;0.00;0.00;;;25.40;39.90;;;;;;5008881;28;20225;-46
2024/02/02 07:00:03;;;;;;;0.00;0.00;;;25.40;39.70;;;;;;5009931;28;20590;-48
2024/02/02 07:02:35;;;;;;;0.00;0.00;;;25.50;39.70;;;;;;5009372;28;20641;-48
2024/02/02 07:05:07;;;;;;;0.00;0.00;;;25.40;39.60;;;;;;5009102;28;20397;-46
2024/02/02 07:07:38;;;;;;;0.00;0.00;;;25.40;39.70;;;;;;5007663;28;20603;-48
2024/02/02 07:10:18;;;;;;;0.00;0.00;;;25.40;39.60;;;;;;5009144;28;20555;-44
2024/02/02 07:13:01;;;;;;;0.00;0.00;;;25.40;39.60;;;;;;5009002;28;20542;-43
2024/02/02 07:15:33;;;;;;;0.00;0.00;;;25.40;39.70;;;;;;5008568;28;20804;-42
2024/02/02 07:18:07;;;;;;;0.03;0.03;;;25.30;39.60;;;;;;5008589;28;20221;-41
2024/02/02 07:21:07;;;;;;;0.00;0.00;;;25.30;39.70;;;;;;5008317;28;20197;-41
2024/02/02 07:23:40;;;;;;;0.00;0.00;;;25.30;39.90;;;;;;4966083;28;20206;-43
2024/02/02 07:26:24;;;;;;;0.00;0.00;;;25.30;39.80;;;;;;5001671;28;20698;-44
2024/02/02 07:28:54;;;;;;;0.00;0.00;;;25.30;40.00;;;;;;5006504;28;20204;-44
2024/02/02 07:31:38;;;;;;;0.00;0.00;;;25.30;40.00;;;;;;5008052;28;20211;-42
2024/02/02 07:34:40;;;;;;;0.00;0.00;;;25.30;40.00;;;;;;4988796;28;20204;-47
2024/02/02 07:37:13;;;;;;;0.00;0.00;;;25.30;39.90;;;;;;4996575;28;20246;-44
2024/02/02 07:39:43;;;;;;;0.00;0.00;;;25.30;39.80;;;;;;5008917;28;20201;-46
2024/02/02 07:42:16;;;;;;;0.00;0.00;;;25.30;39.70;;;;;;5008997;28;20240;-43
2024/02/02 07:44:47;;;;;;;0.10;0.10;;;25.30;39.60;;;;;;5009227;28;20205;-44
2024/02/02 07:47:17;;;;;;;0.00;0.00;;;25.30;39.40;;;;;;5008444;28;20601;-43
2024/02/02 07:49:48;;;;;;;0.00;0.00;;;25.20;39.20;;;;;;5007500;28;20555;-48
2024/02/02 07:52:19;;;;;;;0.00;0.00;;;25.20;39.10;;;;;;5008335;28;20933;-49
2024/02/02 07:54:50;;;;;;;0.00;0.00;;;25.20;39.00;;;;;;5008123;28;20710;-46
2024/02/02 07:57:22;;;;;;;0.00;0.00;;;25.20;38.90;;;;;;5007933;28;20571;-41
2024/02/02 07:59:53;;;;;;;0.00;0.00;;;25.20;38.80;;;;;;5008280;28;20203;-47
2024/02/02 08:02:24;;;;;;;0.00;0.00;;;25.10;38.70;;;;;;5008324;28;20201;-43
2024/02/02 08:04:55;;;;;;;0.00;0.00;;;25.10;38.60;;;;;;5008292;28;20214;-46
2024/02/02 08:07:26;;;;;;;0.00;0.00;;;25.10;38.50;;;;;;5010564;28;20219;-47
2024/02/02 08:09:56;;;;;;;0.00;0.00;;;25.10;38.40;;;;;;5008233;28;20212;-42
2024/02/02 08:12:29;;;;;;;0.00;0.00;;;25.10;38.40;;;;;;5008342;28;20204;-48
2024/02/02 08:15:00;;;;;;;0.00;0.00;;;25.00;38.20;;;;;;5006412;28;20886;-49
2024/02/02 08:17:31;;;;;;;0.00;0.00;;;25.10;38.30;;;;;;5008331;28;20620;-43
2024/02/02 08:20:01;;;;;;;0.10;0.10;;;25.00;38.20;;;;;;5007317;28;20590;-44
2024/02/02 08:22:32;;;;;;;0.00;0.00;;;25.00;38.30;;;;;;5007461;28;20683;-42
2024/02/02 08:25:03;;;;;;;0.10;0.10;;;25.00;38.30;;;;;;5007874;28;20727;-42
2024/02/02 08:27:35;;;;;;;0.00;0.00;;;25.00;38.40;;;;;;4991238;28;20594;-46
2024/02/02 08:30:07;;;;;;;0.10;0.10;;;24.90;38.40;;;;;;5007471;28;20204;-41
2024/02/02 08:32:39;;;;;;;0.00;0.00;;;24.90;38.40;;;;;;5012338;28;20201;-45
2024/02/02 08:35:10;;;;;;;0.00;0.00;;;24.90;38.50;;;;;;5011824;28;20232;-46
2024/02/02 08:37:42;;;;;;;0.00;0.00;;;24.90;38.60;;;;;;5011571;28;20235;-41
2024/02/02 08:40:36;;;;;;;0.00;0.00;;;24.90;38.70;;;;;;5018988;28;20205;-41
2024/02/02 08:43:14;;;;;;;0.00;0.00;;;24.90;38.70;;;;;;5011751;28;20236;-42
2024/02/02 08:46:13;;;;;;;0.03;0.03;;;24.90;38.80;;;;;;5012015;28;20200;-44
2024/02/02 08:48:48;;;;;;;0.10;0.10;;;24.90;38.80;;;;;;5011394;28;20220;-49
2024/02/02 08:51:49;;;;;;;0.00;0.00;;;24.90;39.50;;;;;;5013488;28;20548;-45
2024/02/02 08:54:48;;;;;;;0.00;0.00;;;24.80;38.90;;;;;;5012037;28;20292;-43
2024/02/02 08:57:41;;;;;;;0.10;0.10;;;24.80;38.90;;;;;;5003208;28;20226;-47
2024/02/02 09:00:39;;;;;;;0.00;0.00;;;24.80;39.00;;;;;;5011230;28;20204;-45
2024/02/02 09:03:33;;;;;;;0.10;0.10;;;24.80;39.10;;;;;;5011639;28;20546;-42
2024/02/02 09:06:07;;;;;;;0.00;0.00;;;24.80;39.10;;;;;;5010876;28;20220;-46
2024/02/02 09:08:42;;;;;;;0.00;0.00;;;24.70;39.10;;;;;;5011433;28;20224;-49
2024/02/02 09:11:23;;;;;;;0.05;0.05;;;24.70;39.20;;;;;;5011661;28;20215;-46
2024/02/02 09:14:11;;;;;;;0.00;0.00;;;24.70;39.30;;;;;;5010793;28;20193;-47
2024/02/02 09:16:46;;;;;;;0.00;0.00;;;24.70;39.30;;;;;;5011065;28;20351;-44
2024/02/02 09:19:30;;;;;;;0.05;0.05;;;24.70;39.30;;;;;;5011706;28;20196;-41
2024/02/02 09:22:02;;;;;;;0.00;0.00;;;24.70;39.40;;;;;;5010774;28;20226;-41
2024/02/02 09:24:43;;;;;;;0.00;0.00;;;24.70;39.40;;;;;;5011048;28;20227;-42
2024/02/02 09:27:16;;;;;;;0.00;0.00;;;24.60;39.40;;;;;;5011222;28;20310;-49
2024/02/02 09:29:51;;;;;;;0.00;0.00;;;24.60;39.40;;;;;;5011377;28;20733;-43
2024/02/02 09:32:24;;;;;;;0.00;0.00;;;24.60;39.50;;;;;;5011128;28;20200;-49
2024/02/02 09:34:55;;;;;;;0.10;0.10;;;24.60;39.50;;;;;;5010610;28;20200;-47
2024/02/02 09:37:28;;;;;;;0.00;0.00;;;24.60;39.50;;;;;;5010103;28;20213;-42
2024/02/02 09:39:59;;;;;;;0.00;0.00;;;24.50;39.60;;;;;;5010612;28;20204;-46
2024/02/02 09:42:53;;;;;;;0.00;0.00;;;24.50;39.60;;;;;;5009911;28;20812;-42
2024/02/02 09:45:51;;;;;;;0.10;0.10;;;24.50;39.60;;;;;;5009171;28;20205;-43
2024/02/02 09:48:43;;;;;;;0.00;0.00;;;24.50;39.60;;;;;;5010798;28;20230;-45
2024/02/02 09:51:24;;;;;;;0.00;0.00;;;24.50;39.70;;;;;;5009558;28;20202;-42
2024/02/02 09:54:13;;;;;;;0.00;0.00;;;24.50;39.70;;;;;;5010828;28;20212;-44
2024/02/02 09:56:59;;;;;;;0.05;0.05;;;24.40;39.70;;;;;;5009936;28;20236;-44
2024/02/02 09:59:38;;;;;;;0.00;0.00;;;24.40;39.80;;;;;;5010410;28;20201;-42
2024/02/02 10:02:45;;;;;;;0.00;0.00;;;24.40;39.80;;;;;;5010052;28;20545;-41
2024/02/02 10:05:25;;;;;;;0.00;0.00;;;24.30;39.80;;;;;;5009135;28;20204;-43
2024/02/02 10:08:09;;;;;;;0.00;0.00;;;24.40;39.90;;;;;;5009837;28;20216;-41
2024/02/02 10:10:56;;;;;;;0.10;0.10;;;24.30;39.90;;;;;;5009689;28;20221;-46
2024/02/02 10:13:43;;;;;;;0.10;0.10;;;24.30;39.90;;;;;;5010435;28;20207;-42
2024/02/02 10:16:30;;;;;;;0.00;0.00;;;24.30;39.90;;;;;;5010143;28;20228;-46
2024/02/02 10:19:22;;;;;;;0.00;0.00;;;24.30;40.00;;;;;;5009536;28;20197;-43
2024/02/02 10:22:08;;;;;;;0.00;0.00;;;24.30;40.00;;;;;;5009435;28;20201;-43
2024/02/02 10:24:56;;;;;;;0.00;0.00;;;24.20;40.00;;;;;;5009410;28;20200;-41
2024/02/02 10:27:48;;;;;;;0.00;0.00;;;24.20;40.00;;;;;;5009211;28;20699;-46
2024/02/02 10:30:26;;;;;;;0.00;0.00;;;24.20;40.00;;;;;;5020592;28;20192;-42
2024/02/02 10:33:26;;;;;;;0.00;0.00;;;24.20;40.10;;;;;;5009849;28;20208;-44
2024/02/02 10:36:04;;;;;;;0.00;0.00;;;24.20;40.10;;;;;;5009307;28;20235;-41
2024/02/02 10:38:51;;;;;;;0.10;0.10;;;24.10;40.10;;;;;;5009838;28;20316;-41
2024/02/02 10:41:33;;;;;;;0.10;0.10;;;24.10;40.10;;;;;;5010393;28;20224;-41
2024/02/02 10:44:24;;;;;;;0.10;0.10;;;24.10;40.20;;;;;;5006642;28;20573;-44
2024/02/02 10:47:11;;;;;;;0.00;0.00;;;24.00;40.10;;;;;;5009545;28;20216;-46
2024/02/02 10:49:54;;;;;;;0.10;0.10;;;24.00;40.10;;;;;;5008621;28;20200;-50
2024/02/02 10:52:33;;;;;;;0.00;0.00;;;24.00;40.20;;;;;;5007757;28;20213;-50
2024/02/02 10:55:24;;;;;;;0.00;0.00;;;24.00;40.20;;;;;;5000242;28;20205;-44
2024/02/02 10:58:05;;;;;;;0.00;0.00;;;24.00;40.30;;;;;;5007094;28;20231;-46
2024/02/02 11:00:44;;;;;;;0.00;0.00;;;23.90;40.30;;;;;;5008061;28;20720;-41
2024/02/02 11:03:27;;;;;;;0.00;0.00;;;23.90;40.30;;;;;;5008149;28;20215;-45
2024/02/02 11:06:23;;;;;;;0.03;0.03;;;23.90;40.30;;;;;;5007796;28;20214;-44
2024/02/02 11:09:03;;;;;;;0.00;0.00;;;23.90;40.40;;;;;;5006960;28;20207;-43
2024/02/02 11:11:38;;;;;;;0.10;0.10;;;23.80;40.30;;;;;;5007344;28;20728;-41
2024/02/02 11:14:22;;;;;;;0.10;0.10;;;23.80;40.40;;;;;;5007450;28;20204;-41
2024/02/02 11:17:02;;;;;;;0.00;0.00;;;23.80;40.40;;;;;;5008026;28;20250;-41
2024/02/02 11:19:55;;;;;;;0.00;0.00;;;23.80;40.50;;;;;;5006925;28;20699;-43
2024/02/02 11:22:37;;;;;;;0.00;0.00;;;23.80;40.50;;;;;;5007223;28;20228;-41
2024/02/02 11:25:16;;;;;;;0.00;0.00;;;23.70;40.40;;;;;;5007512;28;20291;-41
2024/02/02 11:27:56;;;;;;;0.00;0.00;;;23.70;40.40;;;;;;5012653;28;20235;-40
2024/02/02 11:30:48;;;;;;;0.10;0.10;;;23.70;40.40;;;;;;5007791;28;20494;-43
2024/02/02 11:33:42;;;;;;;0.00;0.00;;;23.70;40.40;;;;;;5007286;28;20209;-41
2024/02/02 11:36:24;;;;;;;0.00;0.00;;;23.70;40.40;;;;;;5006686;28;20240;-41
2024/02/02 11:39:10;;;;;;;0.00;0.00;;;23.70;40.40;;;;;;5007328;28;20213;-49
2024/02/02 11:41:42;;;;;;;0.10;0.10;;;23.60;40.40;;;;;;5007138;28;20208;-43
2024/02/02 11:44:16;;;;;;;0.10;0.10;;;23.60;40.50;;;;;;5007074;28;20205;-44
2024/02/02 11:46:49;;;;;;;0.00;0.00;;;23.60;40.50;;;;;;5006901;28;20226;-41
2024/02/02 11:49:29;;;;;;;0.00;0.00;;;23.60;40.60;;;;;;5009405;28;20205;-42
2024/02/02 11:54:38;;;;;;;0.05;0.05;;;23.50;40.50;;;;;;5030295;28;20239;-46
2024/02/02 11:57:11;;;;;;;0.00;0.00;;;23.50;40.60;;;;;;5031343;28;20251;-46
2024/02/02 11:59:47;;;;;;;0.08;0.08;;;23.50;40.60;;;;;;5031558;28;20199;-46
2024/02/02 12:02:36;;;;;;;0.10;0.10;;;23.50;40.60;;;;;;5031479;28;20559;-46
2024/02/02 12:05:15;;;;;;;0.10;0.10;;;23.50;40.60;;;;;;5030899;28;20200;-45
2024/02/02 12:07:55;;;;;;;0.10;0.10;;;23.50;40.60;;;;;;5030624;28;20216;-45
2024/02/02 12:10:32;;;;;;;0.10;0.10;;;23.40;40.60;;;;;;5030895;28;20196;-46
2024/02/02 12:13:04;;;;;;;0.10;0.10;;;23.40;40.60;;;;;;5030753;28;20215;-46
2024/02/02 12:15:37;;;;;;;0.00;0.00;;;23.40;40.60;;;;;;5028390;28;20227;-47
2024/02/02 12:18:09;;;;;;;0.00;0.00;;;23.30;40.50;;;;;;5030415;28;20208;-46
2024/02/02 12:20:40;;;;;;;0.00;0.00;;;23.30;40.60;;;;;;5030423;28;20199;-45
2024/02/02 12:23:11;;;;;;;0.00;0.00;;;23.30;40.60;;;;;;5031365;28;20196;-46
2024/02/02 12:25:42;;;;;;;0.00;0.00;;;23.30;40.60;;;;;;5030969;28;20664;-46
2024/02/02 12:28:13;;;;;;;0.10;0.10;;;23.30;40.60;;;;;;5030575;28;20208;-45
2024/02/02 12:30:46;;;;;;;0.00;0.00;;;23.30;40.70;;;;;;5030632;28;20198;-47
2024/02/02 12:33:16;;;;;;;0.10;0.10;;;23.20;40.60;;;;;;5030837;28;20188;-47
2024/02/02 12:35:48;;;;;;;0.00;0.00;;;23.20;40.60;;;;;;5028167;28;20188;-47
2024/02/02 12:38:24;;;;;;;0.00;0.00;;;23.20;40.60;;;;;;5030900;28;20208;-46
2024/02/02 12:40:56;;;;;;;0.00;0.00;;;23.20;40.70;;;;;;5029621;28;20202;-46
2024/02/02 12:43:27;;;;;;;0.00;0.00;;;23.20;40.70;;;;;;5028076;28;20211;-46
2024/02/02 12:46:01;;;;;;;0.03;0.03;;;23.10;40.70;;;;;;5030022;28;20188;-46
2024/02/02 12:48:31;;;;;;;0.10;0.10;;;23.20;40.70;;;;;;5028487;28;20216;-46
2024/02/02 12:51:02;;;;;;;0.00;0.00;;;23.10;40.70;;;;;;5030419;28;20194;-46
2024/02/02 12:53:35;;;;;;;0.00;0.00;;;23.10;40.70;;;;;;5032071;22;20221;-42
2024/02/02 12:56:07;;;;;;;0.10;0.10;;;23.00;40.70;;;;;;5011095;28;20201;-47
2024/02/02 12:58:37;;;;;;;0.00;0.00;;;23.10;41.30;;;;;;5010141;28;20224;-43
2024/02/02 13:01:11;;;;;;;0.00;0.00;;;23.00;40.70;;;;;;5011206;28;20197;-45
2024/02/02 13:03:41;;;;;;;0.00;0.00;;;23.00;40.70;;;;;;5011261;28;20193;-44
2024/02/02 13:06:13;;;;;;;0.00;0.00;;;23.00;40.70;;;;;;5002238;28;20573;-43
2024/02/02 13:08:46;;;;;;;0.00;0.00;;;23.00;40.70;;;;;;5000462;28;20205;-47
2024/02/02 13:11:23;;;;;;;0.00;0.00;;;23.00;41.30;;;;;;5002073;28;20272;-47
2024/02/02 13:14:04;;;;;;;0.00;0.00;;;22.90;40.60;;;;;;5001124;28;20645;-46
2024/02/02 13:16:37;;;;;;;0.00;0.00;;;22.90;41.30;;;;;;5001974;28;20228;-43
2024/02/02 13:19:28;;;;;;;0.00;0.00;;;22.90;40.70;;;;;;5004673;28;20225;-44
2024/02/02 13:22:04;;;;;;;0.00;0.00;;;22.90;40.70;;;;;;5005406;28;20201;-46
2024/02/02 13:24:46;;;;;;;0.00;0.00;;;22.90;40.70;;;;;;5005345;28;20557;-43
2024/02/02 13:27:20;;;;;;;0.10;0.10;;;22.90;40.80;;;;;;5005121;28;20208;-44
2024/02/02 13:29:53;;;;;;;0.10;0.10;;;22.80;40.80;;;;;;5004221;28;20193;-44
2024/02/02 13:32:26;;;;;;;0.00;0.00;;;22.80;40.80;;;;;;5003085;28;20252;-46